createdAt,value
2022-10-11T00:00:38.466Z,93.66
2022-10-11T00:06:00.346Z,94.58
2022-10-11T00:11:22.242Z,93.98
2022-10-11T00:16:44.441Z,94.26
2022-10-11T00:22:06.533Z,94.96
2022-10-11T00:27:28.426Z,94.53
2022-10-11T00:32:50.309Z,94.90
2022-10-11T00:38:12.174Z,95.69
2022-10-11T00:43:34.676Z,96.46
2022-10-11T00:49:02.874Z,96.33
2022-10-11T00:54:28.816Z,96.89
2022-10-11T00:59:53.833Z,97.75
2022-10-11T01:05:29.064Z,98.33
2022-10-11T01:10:52.032Z,99.31
2022-10-11T01:16:23.542Z,99.38
2022-10-11T01:21:52.086Z,100.00
2022-10-11T01:27:29.413Z,99.54
2022-10-11T01:33:17.138Z,100.00
2022-10-11T01:38:50.598Z,100.00
2022-10-11T01:44:13.567Z,99.91
2022-10-11T01:49:35.404Z,99.99
2022-10-11T01:55:31.058Z,98.77
2022-10-11T02:01:03.381Z,99.24
2022-10-11T02:06:46.962Z,99.90
2022-10-11T02:12:12.468Z,100.00
2022-10-11T02:17:39.296Z,99.12
2022-10-11T02:23:07.980Z,98.81
2022-10-11T02:28:35.444Z,98.92
2022-10-11T02:34:05.347Z,98.85
2022-10-11T02:39:34.125Z,98.28
2022-10-11T02:45:04.293Z,97.22
2022-10-11T02:50:27.035Z,97.16
2022-10-11T02:55:51.447Z,98.56
2022-10-11T03:01:13.911Z,98.31
2022-10-11T03:06:35.874Z,98.64
2022-10-11T03:11:57.763Z,100.00
2022-10-11T03:17:35.679Z,100.00
2022-10-11T03:22:58.228Z,100.00
2022-10-11T03:28:20.620Z,100.00
2022-10-11T03:33:42.485Z,100.00
2022-10-11T03:39:04.507Z,100.00
2022-10-11T03:44:26.615Z,100.00
2022-10-11T03:49:48.490Z,100.00
2022-10-11T03:55:10.310Z,100.00
2022-10-11T04:00:33.326Z,100.00
2022-10-11T04:05:55.301Z,100.00
2022-10-11T04:11:17.164Z,100.00
2022-10-11T04:16:38.956Z,100.00
2022-10-11T04:22:00.816Z,100.00
2022-10-11T04:27:22.700Z,100.00
2022-10-11T04:32:44.695Z,100.00
2022-10-11T04:38:06.548Z,100.00
2022-10-11T04:43:28.598Z,100.00
2022-10-11T04:48:51.052Z,100.00
2022-10-11T04:54:12.893Z,100.00
2022-10-11T04:59:34.721Z,100.00
2022-10-11T05:04:56.538Z,100.00
2022-10-11T05:10:18.481Z,100.00
2022-10-11T05:15:40.359Z,100.00
2022-10-11T05:21:03.400Z,100.00
2022-10-11T05:26:27.136Z,100.00
2022-10-11T05:31:48.953Z,100.00
2022-10-11T05:37:10.820Z,100.00
2022-10-11T05:42:33.145Z,100.00
2022-10-11T05:47:54.966Z,100.00
2022-10-11T05:53:16.901Z,98.18
2022-10-11T05:58:39.623Z,100.00
2022-10-11T06:04:01.457Z,99.50
2022-10-11T06:09:23.294Z,62.96
2022-10-11T06:14:45.121Z,65.70
2022-10-11T06:20:07.559Z,75.46
2022-10-11T06:25:44.465Z,74.60
2022-10-11T06:31:07.153Z,69.52
2022-10-11T06:36:28.982Z,56.22
2022-10-11T06:41:50.829Z,43.45
2022-10-11T06:47:12.669Z,41.43
2022-10-11T06:52:34.492Z,37.71
2022-10-11T06:57:57.125Z,37.73
2022-10-11T07:03:19.006Z,36.99
2022-10-11T07:08:41.174Z,36.58
2022-10-11T07:14:05.854Z,36.77
2022-10-11T07:19:27.732Z,37.97
2022-10-11T07:24:49.590Z,37.80
2022-10-11T07:30:11.776Z,42.44
2022-10-11T07:35:37.493Z,50.79
2022-10-11T07:40:59.582Z,45.75
2022-10-11T07:46:21.419Z,43.75
2022-10-11T07:51:43.714Z,46.73
2022-10-11T07:57:05.533Z,52.05
2022-10-11T08:02:27.411Z,54.46
2022-10-11T08:07:49.336Z,55.71
2022-10-11T08:13:11.396Z,57.76
2022-10-11T08:18:33.617Z,60.65
2022-10-11T08:23:55.509Z,61.11
2022-10-11T08:29:17.755Z,65.76
2022-10-11T08:34:39.593Z,65.04
2022-10-11T08:40:01.522Z,65.04
2022-10-11T08:45:42.684Z,64.72
2022-10-11T08:51:19.483Z,65.81
2022-10-11T08:56:41.744Z,66.93
2022-10-11T09:02:19.843Z,65.57
2022-10-11T09:07:56.620Z,65.10
2022-10-11T09:13:39.897Z,55.72
2022-10-11T09:19:37.181Z,61.11
2022-10-11T09:25:04.869Z,62.13
2022-10-11T09:30:26.812Z,62.71
2022-10-11T09:35:52.496Z,62.46
2022-10-11T09:41:22.114Z,63.27
2022-10-11T09:46:45.532Z,61.96
2022-10-11T09:52:15.493Z,63.05
2022-10-11T09:57:39.780Z,65.52
2022-10-11T10:03:04.024Z,63.45
2022-10-11T10:08:26.035Z,62.84
2022-10-11T10:13:54.603Z,61.56
2022-10-11T10:19:21.283Z,57.47
2022-10-11T10:24:43.367Z,57.17
2022-10-11T10:30:08.221Z,58.76
2022-10-11T10:35:35.528Z,60.76
2022-10-11T10:41:01.451Z,59.43
2022-10-11T10:46:28.877Z,57.85
2022-10-11T10:51:57.970Z,56.62
2022-10-11T10:57:28.514Z,56.46
2022-10-11T11:02:53.377Z,57.24
2022-10-11T11:08:36.760Z,56.92
2022-10-11T11:14:03.015Z,57.11
2022-10-11T11:19:38.181Z,55.94
2022-10-11T11:25:08.887Z,57.44
2022-10-11T11:30:54.252Z,54.58
2022-10-11T11:37:03.594Z,53.54
2022-10-11T11:42:39.237Z,53.83
2022-10-11T11:48:10.617Z,52.97
2022-10-11T11:53:47.869Z,52.51
2022-10-11T11:59:45.990Z,51.67
2022-10-11T12:05:10.810Z,52.67
2022-10-11T12:10:54.502Z,52.79
2022-10-11T12:16:17.383Z,53.29
2022-10-11T12:21:43.392Z,53.59
2022-10-11T12:27:37.013Z,53.03
2022-10-11T12:33:18.855Z,53.04
2022-10-11T12:38:40.710Z,52.60
2022-10-11T12:44:24.948Z,51.85
2022-10-11T12:49:47.002Z,52.03
2022-10-11T12:55:44.856Z,51.28
2022-10-11T13:01:09.410Z,51.08
2022-10-11T13:06:35.759Z,51.59
2022-10-11T13:12:09.055Z,51.73
2022-10-11T13:17:38.480Z,50.88
2022-10-11T13:23:00.783Z,50.35
2022-10-11T13:28:23.699Z,49.80
2022-10-11T13:33:46.391Z,50.20
2022-10-11T13:39:28.377Z,49.96
2022-10-11T13:44:52.824Z,50.50
2022-10-11T13:50:17.430Z,49.22
2022-10-11T13:55:42.072Z,49.12
2022-10-11T14:01:07.983Z,48.74
2022-10-11T14:06:52.349Z,48.27
2022-10-11T14:12:31.298Z,47.68
2022-10-11T14:17:53.291Z,48.24
2022-10-11T14:23:15.277Z,48.21
2022-10-11T14:28:37.179Z,48.07
2022-10-11T14:33:59.245Z,48.09
2022-10-11T14:39:24.261Z,48.28
2022-10-11T14:44:46.334Z,48.62
2022-10-11T14:50:23.387Z,47.78
2022-10-11T14:55:45.492Z,49.17
2022-10-11T15:01:10.085Z,50.25
2022-10-11T15:06:36.555Z,51.12
2022-10-11T15:11:58.589Z,51.93
2022-10-11T15:17:20.441Z,52.51
2022-10-11T15:22:42.281Z,54.31
2022-10-11T15:28:05.401Z,55.20
2022-10-11T15:33:27.303Z,56.24
2022-10-11T15:38:49.483Z,56.83
2022-10-11T15:44:11.291Z,58.01
2022-10-11T15:49:33.122Z,58.93
2022-10-11T15:54:54.934Z,59.86
2022-10-11T16:00:21.954Z,60.92
2022-10-11T16:05:44.276Z,61.55
2022-10-11T16:11:07.648Z,62.48
2022-10-11T16:16:29.474Z,63.35
2022-10-11T16:21:51.273Z,63.72
2022-10-11T16:27:16.550Z,64.76
2022-10-11T16:32:41.431Z,65.54
2022-10-11T16:38:03.292Z,67.10
2022-10-11T16:43:25.122Z,67.78
2022-10-11T16:48:47.732Z,68.67
2022-10-11T16:54:09.609Z,69.64
2022-10-11T16:59:31.428Z,70.99
2022-10-11T17:04:53.557Z,71.19
2022-10-11T17:10:15.444Z,72.24
2022-10-11T17:15:37.706Z,72.58
2022-10-11T17:21:04.674Z,73.29
2022-10-11T17:26:27.218Z,73.50
2022-10-11T17:31:49.578Z,73.72
2022-10-11T17:37:11.486Z,74.04
2022-10-11T17:42:33.341Z,74.26
2022-10-11T17:47:55.189Z,75.03
2022-10-11T17:53:17.066Z,75.56
2022-10-11T17:58:39.274Z,75.11
2022-10-11T18:04:04.192Z,75.51
2022-10-11T18:09:26.004Z,75.77
2022-10-11T18:14:47.871Z,75.97
2022-10-11T18:20:10.162Z,76.39
2022-10-11T18:25:33.554Z,76.82
2022-10-11T18:30:55.357Z,76.78
2022-10-11T18:36:19.776Z,76.90
2022-10-11T18:41:42.507Z,77.07
2022-10-11T18:47:04.610Z,77.08
2022-10-11T18:52:26.418Z,78.08
2022-10-11T18:57:48.226Z,78.14
2022-10-11T19:03:10.047Z,78.77
2022-10-11T19:08:32.519Z,78.46
2022-10-11T19:14:08.448Z,79.60
2022-10-11T19:19:31.096Z,79.60
2022-10-11T19:24:53.013Z,79.87
2022-10-11T19:30:15.030Z,80.44
2022-10-11T19:35:36.878Z,80.53
2022-10-11T19:41:00.665Z,80.98
2022-10-11T19:46:44.311Z,81.56
2022-10-11T19:52:04.457Z,81.51
2022-10-11T19:57:26.319Z,81.53
2022-10-11T20:02:49.097Z,81.39
2022-10-11T20:08:10.929Z,82.00
2022-10-11T20:13:35.056Z,81.74
2022-10-11T20:18:58.155Z,81.98
2022-10-11T20:24:19.972Z,82.11
2022-10-11T20:29:41.763Z,82.07
2022-10-11T20:35:03.873Z,82.39
2022-10-11T20:40:25.740Z,83.15
2022-10-11T20:46:05.032Z,82.84
2022-10-11T20:51:26.895Z,83.40
2022-10-11T20:56:48.947Z,83.49
2022-10-11T21:02:12.610Z,84.32
2022-10-11T21:07:37.233Z,84.36
2022-10-11T21:12:59.112Z,84.59
2022-10-11T21:18:21.340Z,84.50
2022-10-11T21:23:43.375Z,85.13
2022-10-11T21:29:05.229Z,85.07
2022-10-11T21:34:27.451Z,84.95
2022-10-11T21:39:49.279Z,85.29
2022-10-11T21:45:11.082Z,85.20
2022-10-11T21:50:32.955Z,85.63
2022-10-11T21:55:58.934Z,85.52
2022-10-11T22:01:21.277Z,86.31
2022-10-11T22:06:43.154Z,85.97
2022-10-11T22:12:05.418Z,86.25
2022-10-11T22:17:27.258Z,87.39
2022-10-11T22:22:49.050Z,88.25
2022-10-11T22:28:10.960Z,88.83
2022-10-11T22:33:33.252Z,89.26
2022-10-11T22:38:55.181Z,90.13
2022-10-11T22:44:17.032Z,89.92
2022-10-11T22:49:38.876Z,89.66
2022-10-11T22:55:00.883Z,90.85
2022-10-11T23:00:22.734Z,90.97
2022-10-11T23:05:54.187Z,90.92
2022-10-11T23:11:15.975Z,91.44
2022-10-11T23:16:38.008Z,92.05
2022-10-11T23:21:59.804Z,92.31
2022-10-11T23:27:21.772Z,92.68
2022-10-11T23:32:43.600Z,93.30
2022-10-11T23:38:05.424Z,93.46
2022-10-11T23:43:27.298Z,93.35
2022-10-11T23:48:49.189Z,93.39
2022-10-11T23:54:11.109Z,93.43
2022-10-11T23:59:32.947Z,93.71
